sensor_id;sensor_type;location;lat;lon;timestamp;pressure;altitude;pressure_sealevel;temperature;humidity
71735;BME280;59577;52.122;5.406;2023-07-29T00:01:27;100790.00;;;17.35;90.07
71735;BME280;59577;52.122;5.406;2023-07-29T00:03:53;100778.28;;;17.34;90.14
71735;BME280;59577;52.122;5.406;2023-07-29T00:06:20;100781.41;;;17.36;90.20
71735;BME280;59577;52.122;5.406;2023-07-29T00:08:47;100779.03;;;17.38;90.34
71735;BME280;59577;52.122;5.406;2023-07-29T00:11:13;100771.22;;;17.40;90.54
71735;BME280;59577;52.122;5.406;2023-07-29T00:13:40;100772.03;;;17.37;90.23
71735;BME280;59577;52.122;5.406;2023-07-29T00:16:07;100764.19;;;17.39;89.90
71735;BME280;59577;52.122;5.406;2023-07-29T00:18:33;100768.09;;;17.38;89.75
71735;BME280;59577;52.122;5.406;2023-07-29T00:21:00;100757.53;;;17.40;90.19
71735;BME280;59577;52.122;5.406;2023-07-29T00:23:27;100757.13;;;17.42;90.00
71735;BME280;59577;52.122;5.406;2023-07-29T00:25:53;100755.97;;;17.43;90.41
71735;BME280;59577;52.122;5.406;2023-07-29T00:28:20;100757.53;;;17.40;89.23
71735;BME280;59577;52.122;5.406;2023-07-29T00:30:48;100745.47;;;17.34;89.14
71735;BME280;59577;52.122;5.406;2023-07-29T00:33:15;100739.19;;;17.34;89.77
71735;BME280;59577;52.122;5.406;2023-07-29T00:35:42;100731.38;;;17.36;90.04
71735;BME280;59577;52.122;5.406;2023-07-29T00:38:08;100718.88;;;17.35;89.95
71735;BME280;59577;52.122;5.406;2023-07-29T00:40:36;100730.63;;;17.32;89.42
71735;BME280;59577;52.122;5.406;2023-07-29T00:43:03;100748.66;;;17.25;89.47
71735;BME280;59577;52.122;5.406;2023-07-29T00:45:31;100748.28;;;17.23;89.71
71735;BME280;59577;52.122;5.406;2023-07-29T00:47:59;100754.13;;;17.25;89.76
71735;BME280;59577;52.122;5.406;2023-07-29T00:50:27;100761.94;;;17.23;90.05
71735;BME280;59577;52.122;5.406;2023-07-29T00:52:55;100755.28;;;17.24;90.63
71735;BME280;59577;52.122;5.406;2023-07-29T00:55:23;100747.88;;;17.21;90.67
71735;BME280;59577;52.122;5.406;2023-07-29T00:57:50;100733.81;;;17.19;91.12
71735;BME280;59577;52.122;5.406;2023-07-29T01:00:19;100729.53;;;17.18;90.74
71735;BME280;59577;52.122;5.406;2023-07-29T01:02:46;100729.13;;;17.16;91.10
71735;BME280;59577;52.122;5.406;2023-07-29T01:05:14;100726.06;;;17.10;91.27
71735;BME280;59577;52.122;5.406;2023-07-29T01:07:59;100729.97;;;17.09;90.70
71735;BME280;59577;52.122;5.406;2023-07-29T01:11:07;100745.59;;;17.09;90.35
71735;BME280;59577;52.122;5.406;2023-07-29T01:16:24;100747.94;;;17.07;90.82
71735;BME280;59577;52.122;5.406;2023-07-29T01:18:53;100739.78;;;17.00;91.22
71735;BME280;59577;52.122;5.406;2023-07-29T01:21:21;100734.72;;;16.95;91.24
71735;BME280;59577;52.122;5.406;2023-07-29T01:23:52;100741.34;;;16.97;91.66
71735;BME280;59577;52.122;5.406;2023-07-29T01:26:19;100729.28;;;16.91;92.03
71735;BME280;59577;52.122;5.406;2023-07-29T01:28:45;100732.44;;;16.86;92.44
71735;BME280;59577;52.122;5.406;2023-07-29T01:31:40;100728.13;;;16.81;92.74
71735;BME280;59577;52.122;5.406;2023-07-29T01:34:13;100737.09;;;16.78;92.79
71735;BME280;59577;52.122;5.406;2023-07-29T01:36:44;100744.13;;;16.83;92.76
71735;BME280;59577;52.122;5.406;2023-07-29T01:39:14;100737.88;;;16.86;92.46
71735;BME280;59577;52.122;5.406;2023-07-29T01:41:43;100735.56;;;16.84;92.70
71735;BME280;59577;52.122;5.406;2023-07-29T01:44:11;100733.19;;;16.83;92.16
71735;BME280;59577;52.122;5.406;2023-07-29T01:46:38;100725.41;;;16.78;92.67
71735;BME280;59577;52.122;5.406;2023-07-29T01:49:04;100730.50;;;16.72;93.48
71735;BME280;59577;52.122;5.406;2023-07-29T01:51:31;100727.41;;;16.66;94.32
71735;BME280;59577;52.122;5.406;2023-07-29T01:53:57;100729.31;;;16.69;93.93
71735;BME280;59577;52.122;5.406;2023-07-29T01:56:25;100721.50;;;16.79;93.56
71735;BME280;59577;52.122;5.406;2023-07-29T01:58:52;100721.88;;;16.81;93.48
71735;BME280;59577;52.122;5.406;2023-07-29T02:01:19;100722.25;;;16.83;93.80
71735;BME280;59577;52.122;5.406;2023-07-29T02:03:45;100711.72;;;16.78;94.29
71735;BME280;59577;52.122;5.406;2023-07-29T02:06:12;100717.97;;;16.74;95.24
71735;BME280;59577;52.122;5.406;2023-07-29T02:08:38;100714.50;;;16.70;95.66
71735;BME280;59577;52.122;5.406;2023-07-29T02:11:07;100715.63;;;16.73;95.83
71735;BME280;59577;52.122;5.406;2023-07-29T02:13:33;100709.00;;;16.78;95.51
71735;BME280;59577;52.122;5.406;2023-07-29T02:16:00;100704.28;;;16.82;95.30
71735;BME280;59577;52.122;5.406;2023-07-29T02:18:26;100710.19;;;16.84;95.29
71735;BME280;59577;52.122;5.406;2023-07-29T02:20:53;100699.63;;;16.86;94.92
71735;BME280;59577;52.122;5.406;2023-07-29T02:23:20;100708.59;;;16.86;94.88
71735;BME280;59577;52.122;5.406;2023-07-29T02:25:46;100708.22;;;16.84;95.38
71735;BME280;59577;52.122;5.406;2023-07-29T02:28:13;100707.44;;;16.84;95.58
71735;BME280;59577;52.122;5.406;2023-07-29T02:30:41;100697.66;;;16.83;95.77
71735;BME280;59577;52.122;5.406;2023-07-29T02:33:10;100703.91;;;16.80;95.93
71735;BME280;59577;52.122;5.406;2023-07-29T02:35:37;100707.00;;;16.82;95.64
71735;BME280;59577;52.122;5.406;2023-07-29T02:38:03;100707.03;;;16.78;96.22
71735;BME280;59577;52.122;5.406;2023-07-29T02:40:30;100709.78;;;16.74;96.53
71735;BME280;59577;52.122;5.406;2023-07-29T02:42:57;100696.53;;;16.69;96.64
71735;BME280;59577;52.122;5.406;2023-07-29T02:45:23;100703.56;;;16.67;97.19
71735;BME280;59577;52.122;5.406;2023-07-29T02:47:50;100700.88;;;16.63;97.13
71735;BME280;59577;52.122;5.406;2023-07-29T02:50:16;100698.53;;;16.62;97.01
71735;BME280;59577;52.122;5.406;2023-07-29T02:52:43;100697.34;;;16.59;97.46
71735;BME280;59577;52.122;5.406;2023-07-29T02:55:10;100691.91;;;16.55;97.51
71735;BME280;59577;52.122;5.406;2023-07-29T02:57:36;100696.59;;;16.55;97.04
71735;BME280;59577;52.122;5.406;2023-07-29T03:00:03;100695.44;;;16.56;97.49
71735;BME280;59577;52.122;5.406;2023-07-29T03:02:30;100694.63;;;16.55;96.96
71735;BME280;59577;52.122;5.406;2023-07-29T03:04:57;100694.22;;;16.57;96.88
71735;BME280;59577;52.122;5.406;2023-07-29T03:07:23;100695.84;;;16.51;97.37
71735;BME280;59577;52.122;5.406;2023-07-29T03:09:50;100693.09;;;16.51;97.34
71735;BME280;59577;52.122;5.406;2023-07-29T03:12:16;100683.31;;;16.53;97.21
71735;BME280;59577;52.122;5.406;2023-07-29T03:14:42;100679.41;;;16.58;96.72
71735;BME280;59577;52.122;5.406;2023-07-29T03:17:12;100666.13;;;16.57;96.85
71735;BME280;59577;52.122;5.406;2023-07-29T03:19:42;100678.63;;;16.58;96.56
71735;BME280;59577;52.122;5.406;2023-07-29T03:22:08;100672.75;;;16.59;96.47
71735;BME280;59577;52.122;5.406;2023-07-29T03:24:35;100677.06;;;16.60;96.22
71735;BME280;59577;52.122;5.406;2023-07-29T03:27:02;100680.19;;;16.59;96.40
71735;BME280;59577;52.122;5.406;2023-07-29T03:29:28;100687.59;;;16.58;96.22
71735;BME280;59577;52.122;5.406;2023-07-29T03:31:55;100681.75;;;16.56;96.28
71735;BME280;59577;52.122;5.406;2023-07-29T03:34:21;100685.28;;;16.57;95.80
71735;BME280;59577;52.122;5.406;2023-07-29T03:36:48;100688.78;;;16.57;95.79
71735;BME280;59577;52.122;5.406;2023-07-29T03:39:15;100677.47;;;16.55;95.61
71735;BME280;59577;52.122;5.406;2023-07-29T03:41:41;100679.44;;;16.54;96.28
71735;BME280;59577;52.122;5.406;2023-07-29T03:44:08;100676.31;;;16.52;96.21
71735;BME280;59577;52.122;5.406;2023-07-29T03:46:35;100676.72;;;16.51;96.53
71735;BME280;59577;52.122;5.406;2023-07-29T03:49:03;100690.75;;;16.49;96.61
71735;BME280;59577;52.122;5.406;2023-07-29T03:51:29;100688.03;;;16.46;97.02
71735;BME280;59577;52.122;5.406;2023-07-29T03:53:56;100678.66;;;16.43;97.27
71735;BME280;59577;52.122;5.406;2023-07-29T03:56:22;100696.25;;;16.39;97.64
71735;BME280;59577;52.122;5.406;2023-07-29T03:58:49;100698.59;;;16.36;97.94
71735;BME280;59577;52.122;5.406;2023-07-29T04:01:16;100703.69;;;16.34;97.83
71735;BME280;59577;52.122;5.406;2023-07-29T04:03:42;100703.28;;;16.32;98.21
71735;BME280;59577;52.122;5.406;2023-07-29T04:06:09;100701.75;;;16.28;98.55
71735;BME280;59577;52.122;5.406;2023-07-29T04:08:35;100699.41;;;16.26;98.64
71735;BME280;59577;52.122;5.406;2023-07-29T04:11:02;100693.16;;;16.26;98.80
71735;BME280;59577;52.122;5.406;2023-07-29T04:13:28;100705.28;;;16.25;98.36
71735;BME280;59577;52.122;5.406;2023-07-29T04:15:55;100704.84;;;16.26;97.88
71735;BME280;59577;52.122;5.406;2023-07-29T04:18:22;100694.75;;;16.23;97.84
71735;BME280;59577;52.122;5.406;2023-07-29T04:20:48;100690.81;;;16.24;97.48
71735;BME280;59577;52.122;5.406;2023-07-29T04:23:15;100683.00;;;16.26;97.00
71735;BME280;59577;52.122;5.406;2023-07-29T04:25:41;100684.19;;;16.25;97.30
71735;BME280;59577;52.122;5.406;2023-07-29T04:28:08;100681.84;;;16.27;96.92
71735;BME280;59577;52.122;5.406;2023-07-29T04:30:35;100684.19;;;16.32;96.34
71735;BME280;59577;52.122;5.406;2023-07-29T04:33:01;100696.25;;;16.35;95.72
71735;BME280;59577;52.122;5.406;2023-07-29T04:35:28;100690.00;;;16.38;95.13
71735;BME280;59577;52.122;5.406;2023-07-29T04:37:54;100695.84;;;16.40;94.75
71735;BME280;59577;52.122;5.406;2023-07-29T04:40:21;100693.53;;;16.39;94.77
71735;BME280;59577;52.122;5.406;2023-07-29T04:42:50;100694.31;;;16.39;94.48
71735;BME280;59577;52.122;5.406;2023-07-29T04:45:17;100686.09;;;16.43;94.03
71735;BME280;59577;52.122;5.406;2023-07-29T04:47:44;100688.81;;;16.43;93.91
71735;BME280;59577;52.122;5.406;2023-07-29T04:50:10;100688.44;;;16.41;94.03
71735;BME280;59577;52.122;5.406;2023-07-29T04:52:37;100693.13;;;16.36;94.04
71735;BME280;59577;52.122;5.406;2023-07-29T04:55:03;100702.13;;;16.33;93.76
71735;BME280;59577;52.122;5.406;2023-07-29T04:57:30;100697.44;;;16.30;94.06
71735;BME280;59577;52.122;5.406;2023-07-29T04:59:57;100699.00;;;16.28;94.16
71735;BME280;59577;52.122;5.406;2023-07-29T05:02:23;100698.22;;;16.27;94.09
71735;BME280;59577;52.122;5.406;2023-07-29T05:04:50;100702.13;;;16.30;94.42
71735;BME280;59577;52.122;5.406;2023-07-29T05:07:16;100711.47;;;16.40;94.19
71735;BME280;59577;52.122;5.406;2023-07-29T05:09:43;100703.63;;;16.45;94.00
71735;BME280;59577;52.122;5.406;2023-07-29T05:12:09;100702.06;;;16.51;93.79
71735;BME280;59577;52.122;5.406;2023-07-29T05:14:36;100718.44;;;16.55;93.77
71735;BME280;59577;52.122;5.406;2023-07-29T05:17:02;100716.91;;;16.58;93.58
71735;BME280;59577;52.122;5.406;2023-07-29T05:19:29;100709.06;;;16.60;93.41
71735;BME280;59577;52.122;5.406;2023-07-29T05:21:56;100713.72;;;16.63;93.34
71735;BME280;59577;52.122;5.406;2023-07-29T05:24:23;100718.41;;;16.66;93.21
71735;BME280;59577;52.122;5.406;2023-07-29T05:26:50;100717.25;;;16.67;92.66
71735;BME280;59577;52.122;5.406;2023-07-29T05:29:17;100709.78;;;16.74;92.82
71735;BME280;59577;52.122;5.406;2023-07-29T05:31:43;100712.50;;;16.78;93.28
71735;BME280;59577;52.122;5.406;2023-07-29T05:34:09;100709.00;;;16.85;92.71
71735;BME280;59577;52.122;5.406;2023-07-29T05:36:36;100711.69;;;16.92;92.52
71735;BME280;59577;52.122;5.406;2023-07-29T05:39:03;100712.84;;;16.98;92.26
71735;BME280;59577;52.122;5.406;2023-07-29T05:41:30;100724.91;;;17.08;92.30
71735;BME280;59577;52.122;5.406;2023-07-29T05:43:56;100721.31;;;17.22;91.61
71735;BME280;59577;52.122;5.406;2023-07-29T05:46:23;100727.44;;;17.40;90.96
71735;BME280;59577;52.122;5.406;2023-07-29T05:48:49;100737.44;;;17.61;90.54
71735;BME280;59577;52.122;5.406;2023-07-29T05:51:16;100731.53;;;17.70;89.49
71735;BME280;59577;52.122;5.406;2023-07-29T05:53:42;100726.94;;;17.56;89.60
71735;BME280;59577;52.122;5.406;2023-07-29T05:56:09;100731.22;;;17.57;89.74
71735;BME280;59577;52.122;5.406;2023-07-29T05:58:36;100726.09;;;17.63;90.45
71735;BME280;59577;52.122;5.406;2023-07-29T06:01:03;100724.16;;;17.63;89.86
71735;BME280;59577;52.122;5.406;2023-07-29T06:03:30;100730.78;;;17.66;89.63
71735;BME280;59577;52.122;5.406;2023-07-29T06:05:56;100730.34;;;17.71;89.27
71735;BME280;59577;52.122;5.406;2023-07-29T06:08:23;100717.03;;;17.73;89.42
71735;BME280;59577;52.122;5.406;2023-07-29T06:10:49;100723.25;;;17.77;89.20
71735;BME280;59577;52.122;5.406;2023-07-29T06:13:16;100714.56;;;17.90;89.36
71735;BME280;59577;52.122;5.406;2023-07-29T06:15:43;100713.41;;;18.29;88.79
71735;BME280;59577;52.122;5.406;2023-07-29T06:18:10;100710.59;;;20.26;84.29
71735;BME280;59577;52.122;5.406;2023-07-29T06:20:36;100718.19;;;22.01;75.38
71735;BME280;59577;52.122;5.406;2023-07-29T06:23:03;100713.38;;;21.72;74.15
71735;BME280;59577;52.122;5.406;2023-07-29T06:25:30;100711.84;;;23.27;69.07
71735;BME280;59577;52.122;5.406;2023-07-29T06:27:56;100711.31;;;23.32;67.39
71735;BME280;59577;52.122;5.406;2023-07-29T06:30:25;100712.41;;;23.47;65.61
71735;BME280;59577;52.122;5.406;2023-07-29T06:32:52;100720.47;;;22.48;67.18
71735;BME280;59577;52.122;5.406;2023-07-29T06:37:45;100723.94;;;21.41;71.80
71735;BME280;59577;52.122;5.406;2023-07-29T06:40:11;100733.78;;;21.06;72.62
71735;BME280;59577;52.122;5.406;2023-07-29T06:42:38;100723.38;;;21.13;73.69
71735;BME280;59577;52.122;5.406;2023-07-29T06:45:05;100715.59;;;21.61;71.99
71735;BME280;59577;52.122;5.406;2023-07-29T06:47:32;100734.28;;;21.00;73.21
71735;BME280;59577;52.122;5.406;2023-07-29T06:49:58;100738.22;;;20.39;74.96
71735;BME280;59577;52.122;5.406;2023-07-29T06:52:25;100738.63;;;20.18;76.26
71735;BME280;59577;52.122;5.406;2023-07-29T06:54:51;100735.34;;;20.26;77.72
71735;BME280;59577;52.122;5.406;2023-07-29T06:57:18;100738.09;;;20.46;76.98
71735;BME280;59577;52.122;5.406;2023-07-29T06:59:45;100733.56;;;20.36;77.44
71735;BME280;59577;52.122;5.406;2023-07-29T07:02:11;100738.22;;;19.96;78.21
71735;BME280;59577;52.122;5.406;2023-07-29T07:04:38;100740.22;;;19.68;79.50
71735;BME280;59577;52.122;5.406;2023-07-29T07:07:05;100734.31;;;19.69;80.65
71735;BME280;59577;52.122;5.406;2023-07-29T07:09:31;100741.09;;;19.88;79.60
71735;BME280;59577;52.122;5.406;2023-07-29T07:11:58;100739.38;;;19.75;79.88
71735;BME280;59577;52.122;5.406;2023-07-29T07:14:24;100737.84;;;19.70;80.44
71735;BME280;59577;52.122;5.406;2023-07-29T07:16:52;100735.63;;;19.61;80.74
71735;BME280;59577;52.122;5.406;2023-07-29T07:19:18;100733.41;;;19.52;81.20
71735;BME280;59577;52.122;5.406;2023-07-29T07:21:44;100742.47;;;19.49;81.71
71735;BME280;59577;52.122;5.406;2023-07-29T07:24:11;100754.28;;;19.46;82.05
71735;BME280;59577;52.122;5.406;2023-07-29T07:26:38;100745.31;;;19.42;82.01
71735;BME280;59577;52.122;5.406;2023-07-29T07:29:05;100748.78;;;19.46;81.95
71735;BME280;59577;52.122;5.406;2023-07-29T07:31:35;100752.72;;;19.45;81.45
71735;BME280;59577;52.122;5.406;2023-07-29T07:34:02;100749.53;;;19.50;82.07
71735;BME280;59577;52.122;5.406;2023-07-29T07:36:29;100752.50;;;19.60;83.08
71735;BME280;59577;52.122;5.406;2023-07-29T07:38:56;100749.28;;;19.65;81.68
71735;BME280;59577;52.122;5.406;2023-07-29T07:41:23;100753.34;;;19.57;81.37
71735;BME280;59577;52.122;5.406;2023-07-29T07:43:51;100751.47;;;19.50;81.57
71735;BME280;59577;52.122;5.406;2023-07-29T07:46:17;100757.34;;;19.52;81.80
71735;BME280;59577;52.122;5.406;2023-07-29T07:48:45;100752.44;;;19.63;81.58
71735;BME280;59577;52.122;5.406;2023-07-29T07:51:12;100752.88;;;19.89;81.35
71735;BME280;59577;52.122;5.406;2023-07-29T07:53:39;100755.47;;;20.20;80.71
71735;BME280;59577;52.122;5.406;2023-07-29T07:56:06;100749.84;;;20.27;80.24
71735;BME280;59577;52.122;5.406;2023-07-29T07:58:34;100743.44;;;20.34;78.96
71735;BME280;59577;52.122;5.406;2023-07-29T08:01:05;100750.06;;;20.36;79.40
71735;BME280;59577;52.122;5.406;2023-07-29T08:03:32;100755.63;;;20.33;79.10
71735;BME280;59577;52.122;5.406;2023-07-29T08:06:00;100756.94;;;20.24;79.93
71735;BME280;59577;52.122;5.406;2023-07-29T08:08:27;100758.44;;;20.29;79.16
71735;BME280;59577;52.122;5.406;2023-07-29T08:10:54;100767.28;;;21.00;79.83
71735;BME280;59577;52.122;5.406;2023-07-29T08:13:23;100750.16;;;21.49;75.88
71735;BME280;59577;52.122;5.406;2023-07-29T08:15:50;100759.25;;;21.46;75.55
71735;BME280;59577;52.122;5.406;2023-07-29T08:18:18;100753.81;;;21.42;75.27
71735;BME280;59577;52.122;5.406;2023-07-29T08:20:55;100761.72;;;21.40;75.12
71735;BME280;59577;52.122;5.406;2023-07-29T08:23:25;100753.25;;;21.84;72.94
71735;BME280;59577;52.122;5.406;2023-07-29T08:25:53;100750.19;;;22.28;72.64
71735;BME280;59577;52.122;5.406;2023-07-29T08:28:20;100762.31;;;22.60;69.92
71735;BME280;59577;52.122;5.406;2023-07-29T08:30:47;100759.91;;;22.16;70.34
71735;BME280;59577;52.122;5.406;2023-07-29T08:33:14;100753.31;;;21.64;70.88
71735;BME280;59577;52.122;5.406;2023-07-29T08:35:41;100753.19;;;21.35;72.48
71735;BME280;59577;52.122;5.406;2023-07-29T08:38:08;100764.75;;;21.10;73.56
71735;BME280;59577;52.122;5.406;2023-07-29T08:40:35;100760.69;;;20.98;74.08
71735;BME280;59577;52.122;5.406;2023-07-29T08:43:04;100763.09;;;20.96;74.51
71735;BME280;59577;52.122;5.406;2023-07-29T08:45:35;100765.03;;;20.95;74.98
71735;BME280;59577;52.122;5.406;2023-07-29T08:48:08;100763.59;;;20.91;75.61
71735;BME280;59577;52.122;5.406;2023-07-29T08:50:37;100762.03;;;20.90;74.59
71735;BME280;59577;52.122;5.406;2023-07-29T08:53:04;100766.84;;;20.85;75.06
71735;BME280;59577;52.122;5.406;2023-07-29T08:55:34;100765.28;;;20.84;75.07
71735;BME280;59577;52.122;5.406;2023-07-29T08:58:02;100763.44;;;20.78;74.76
71735;BME280;59577;52.122;5.406;2023-07-29T09:00:31;100756.53;;;20.90;75.22
71735;BME280;59577;52.122;5.406;2023-07-29T09:02:58;100764.34;;;20.91;74.74
71735;BME280;59577;52.122;5.406;2023-07-29T09:05:29;100764.78;;;20.90;74.72
71735;BME280;59577;52.122;5.406;2023-07-29T09:07:55;100770.34;;;20.86;74.86
71735;BME280;59577;52.122;5.406;2023-07-29T09:10:22;100771.63;;;20.81;75.09
71735;BME280;59577;52.122;5.406;2023-07-29T09:12:52;100770.13;;;20.97;75.89
71735;BME280;59577;52.122;5.406;2023-07-29T09:15:29;100761.75;;;22.06;73.91
71735;BME280;59577;52.122;5.406;2023-07-29T09:17:57;100754.28;;;22.65;70.80
71735;BME280;59577;52.122;5.406;2023-07-29T09:20:28;100766.63;;;22.31;69.98
71735;BME280;59577;52.122;5.406;2023-07-29T09:22:58;100763.38;;;22.04;69.75
71735;BME280;59577;52.122;5.406;2023-07-29T09:25:29;100766.75;;;21.95;71.51
71735;BME280;59577;52.122;5.406;2023-07-29T09:28:00;100760.28;;;22.02;70.63
71735;BME280;59577;52.122;5.406;2023-07-29T09:30:27;100757.00;;;22.07;71.37
71735;BME280;59577;52.122;5.406;2023-07-29T09:32:58;100746.59;;;21.98;71.19
71735;BME280;59577;52.122;5.406;2023-07-29T09:35:27;100755.38;;;21.76;71.45
71735;BME280;59577;52.122;5.406;2023-07-29T09:37:54;100756.94;;;21.61;72.20
71735;BME280;59577;52.122;5.406;2023-07-29T09:40:21;100771.56;;;21.74;72.78
71735;BME280;59577;52.122;5.406;2023-07-29T09:42:52;100758.22;;;21.89;71.53
71735;BME280;59577;52.122;5.406;2023-07-29T09:45:20;100766.47;;;22.06;71.39
71735;BME280;59577;52.122;5.406;2023-07-29T09:47:47;100764.50;;;22.06;70.99
71735;BME280;59577;52.122;5.406;2023-07-29T09:50:14;100768.47;;;21.89;70.77
71735;BME280;59577;52.122;5.406;2023-07-29T09:52:42;100769.16;;;21.60;70.73
71735;BME280;59577;52.122;5.406;2023-07-29T09:55:12;100766.59;;;21.33;73.17
71735;BME280;59577;52.122;5.406;2023-07-29T09:57:40;100770.25;;;21.10;73.96
71735;BME280;59577;52.122;5.406;2023-07-29T10:00:07;100789.47;;;20.93;75.37
71735;BME280;59577;52.122;5.406;2023-07-29T10:02:43;100793.69;;;20.78;76.54
71735;BME280;59577;52.122;5.406;2023-07-29T10:05:10;100775.88;;;20.66;78.32
71735;BME280;59577;52.122;5.406;2023-07-29T10:07:38;100772.56;;;20.51;78.94
71735;BME280;59577;52.122;5.406;2023-07-29T10:10:06;100777.19;;;20.34;80.99
71735;BME280;59577;52.122;5.406;2023-07-29T10:12:34;100778.16;;;20.24;82.97
71735;BME280;59577;52.122;5.406;2023-07-29T10:15:06;100778.31;;;20.17;89.85
71735;BME280;59577;52.122;5.406;2023-07-29T10:17:37;100774.44;;;20.14;92.47
71735;BME280;59577;52.122;5.406;2023-07-29T10:20:06;100785.34;;;20.18;94.13
71735;BME280;59577;52.122;5.406;2023-07-29T10:22:39;100782.19;;;20.19;95.02
71735;BME280;59577;52.122;5.406;2023-07-29T10:25:15;100779.94;;;20.14;94.83
71735;BME280;59577;52.122;5.406;2023-07-29T10:27:52;100789.47;;;20.06;93.85
71735;BME280;59577;52.122;5.406;2023-07-29T10:30:19;100791.50;;;20.02;96.20
71735;BME280;59577;52.122;5.406;2023-07-29T10:32:46;100793.94;;;19.96;96.70
71735;BME280;59577;52.122;5.406;2023-07-29T10:35:14;100786.44;;;20.00;97.66
71735;BME280;59577;52.122;5.406;2023-07-29T10:37:41;100790.00;;;20.21;96.87
71735;BME280;59577;52.122;5.406;2023-07-29T10:40:10;100795.53;;;20.41;95.53
71735;BME280;59577;52.122;5.406;2023-07-29T10:42:38;100794.72;;;20.44;94.21
71735;BME280;59577;52.122;5.406;2023-07-29T10:45:25;100792.31;;;20.46;94.72
71735;BME280;59577;52.122;5.406;2023-07-29T10:47:52;100802.41;;;20.53;95.60
71735;BME280;59577;52.122;5.406;2023-07-29T10:50:21;100783.44;;;20.58;95.45
71735;BME280;59577;52.122;5.406;2023-07-29T10:52:50;100781.59;;;20.52;95.23
71735;BME280;59577;52.122;5.406;2023-07-29T10:55:38;100773.97;;;20.39;95.71
71735;BME280;59577;52.122;5.406;2023-07-29T10:58:15;100775.72;;;20.29;96.06
71735;BME280;59577;52.122;5.406;2023-07-29T11:00:44;100778.03;;;20.31;96.00
71735;BME280;59577;52.122;5.406;2023-07-29T11:03:13;100778.84;;;20.32;95.72
71735;BME280;59577;52.122;5.406;2023-07-29T11:05:51;100789.50;;;20.50;95.09
71735;BME280;59577;52.122;5.406;2023-07-29T11:08:28;100794.16;;;20.53;94.10
71735;BME280;59577;52.122;5.406;2023-07-29T11:13:32;100797.66;;;20.77;92.42
71735;BME280;59577;52.122;5.406;2023-07-29T11:15:59;100797.53;;;20.60;91.66
71735;BME280;59577;52.122;5.406;2023-07-29T11:18:29;100802.34;;;20.56;90.08
71735;BME280;59577;52.122;5.406;2023-07-29T11:20:57;100792.66;;;20.48;89.93
71735;BME280;59577;52.122;5.406;2023-07-29T11:23:31;100803.78;;;20.41;89.80
71735;BME280;59577;52.122;5.406;2023-07-29T11:25:59;100801.66;;;20.28;88.81
71735;BME280;59577;52.122;5.406;2023-07-29T11:28:26;100803.25;;;20.26;89.32
71735;BME280;59577;52.122;5.406;2023-07-29T11:30:56;100802.31;;;20.13;90.03
71735;BME280;59577;52.122;5.406;2023-07-29T11:33:27;100801.06;;;19.94;90.25
71735;BME280;59577;52.122;5.406;2023-07-29T11:35:55;100794.06;;;19.89;90.65
71735;BME280;59577;52.122;5.406;2023-07-29T11:38:22;100795.09;;;19.71;90.89
71735;BME280;59577;52.122;5.406;2023-07-29T11:40:59;100798.72;;;19.65;90.50
71735;BME280;59577;52.122;5.406;2023-07-29T11:43:26;100797.22;;;19.60;90.72
71735;BME280;59577;52.122;5.406;2023-07-29T11:45:53;100792.66;;;19.50;90.74
71735;BME280;59577;52.122;5.406;2023-07-29T11:48:28;100796.28;;;19.43;91.22
71735;BME280;59577;52.122;5.406;2023-07-29T11:50:54;100793.84;;;19.49;91.53
71735;BME280;59577;52.122;5.406;2023-07-29T11:53:21;100796.19;;;19.50;91.53
71735;BME280;59577;52.122;5.406;2023-07-29T11:55:51;100796.84;;;19.58;92.14
71735;BME280;59577;52.122;5.406;2023-07-29T11:58:20;100798.78;;;19.61;91.99
71735;BME280;59577;52.122;5.406;2023-07-29T12:00:48;100800.56;;;19.75;92.84
71735;BME280;59577;52.122;5.406;2023-07-29T12:03:16;100797.91;;;19.95;93.04
71735;BME280;59577;52.122;5.406;2023-07-29T12:05:44;100797.41;;;20.24;91.39
71735;BME280;59577;52.122;5.406;2023-07-29T12:08:11;100800.97;;;20.68;91.03
71735;BME280;59577;52.122;5.406;2023-07-29T12:10:38;100793.03;;;21.30;89.16
71735;BME280;59577;52.122;5.406;2023-07-29T12:13:07;100780.53;;;21.78;88.59
71735;BME280;59577;52.122;5.406;2023-07-29T12:15:34;100782.47;;;22.11;85.92
71735;BME280;59577;52.122;5.406;2023-07-29T12:18:01;100785.94;;;22.31;85.33
71735;BME280;59577;52.122;5.406;2023-07-29T12:20:29;100783.81;;;22.52;83.81
71735;BME280;59577;52.122;5.406;2023-07-29T12:22:57;100783.31;;;22.70;84.06
71735;BME280;59577;52.122;5.406;2023-07-29T12:25:26;100782.84;;;22.59;80.03
71735;BME280;59577;52.122;5.406;2023-07-29T12:27:52;100778.34;;;22.36;79.88
71735;BME280;59577;52.122;5.406;2023-07-29T12:30:20;100780.56;;;22.24;81.94
71735;BME280;59577;52.122;5.406;2023-07-29T12:32:47;100777.56;;;22.19;81.14
71735;BME280;59577;52.122;5.406;2023-07-29T12:35:14;100771.88;;;22.26;81.70
71735;BME280;59577;52.122;5.406;2023-07-29T12:37:41;100783.34;;;22.24;81.88
71735;BME280;59577;52.122;5.406;2023-07-29T12:40:24;100780.06;;;22.13;80.35
71735;BME280;59577;52.122;5.406;2023-07-29T12:42:51;100778.78;;;22.17;80.07
71735;BME280;59577;52.122;5.406;2023-07-29T12:45:18;100778.34;;;22.36;81.42
71735;BME280;59577;52.122;5.406;2023-07-29T12:47:45;100784.97;;;22.38;78.79
71735;BME280;59577;52.122;5.406;2023-07-29T12:50:11;100781.09;;;22.19;78.98
71735;BME280;59577;52.122;5.406;2023-07-29T12:52:38;100786.91;;;22.08;79.53
71735;BME280;59577;52.122;5.406;2023-07-29T12:55:05;100787.75;;;22.05;78.52
71735;BME280;59577;52.122;5.406;2023-07-29T12:57:35;100790.25;;;22.32;78.71
71735;BME280;59577;52.122;5.406;2023-07-29T13:00:03;100781.88;;;22.36;78.25
71735;BME280;59577;52.122;5.406;2023-07-29T13:02:30;100776.16;;;22.27;77.34